sensor_id;sensor_type;location;lat;lon;timestamp;P1;durP1;ratioP1;P2;durP2;ratioP2
22152;SDS011;11242;50.536;12.688;2023-04-19T00:01:24;68.18;;;35.42;;
22152;SDS011;11242;50.536;12.688;2023-04-19T00:03:50;78.65;;;37.63;;
22152;SDS011;11242;50.536;12.688;2023-04-19T00:06:15;85.75;;;38.95;;
22152;SDS011;11242;50.536;12.688;2023-04-19T00:08:42;103.00;;;40.35;;
22152;SDS011;11242;50.536;12.688;2023-04-19T00:11:08;75.22;;;35.08;;
22152;SDS011;11242;50.536;12.688;2023-04-19T00:13:34;94.78;;;38.75;;
22152;SDS011;11242;50.536;12.688;2023-04-19T00:16:00;67.93;;;34.67;;
22152;SDS011;11242;50.536;12.688;2023-04-19T00:18:25;80.57;;;36.63;;
22152;SDS011;11242;50.536;12.688;2023-04-19T00:20:51;61.72;;;33.15;;
22152;SDS011;11242;50.536;12.688;2023-04-19T00:23:17;85.03;;;37.22;;
22152;SDS011;11242;50.536;12.688;2023-04-19T00:25:44;69.35;;;35.25;;
22152;SDS011;11242;50.536;12.688;2023-04-19T00:28:10;104.57;;;39.15;;
22152;SDS011;11242;50.536;12.688;2023-04-19T00:30:35;103.32;;;39.63;;
22152;SDS011;11242;50.536;12.688;2023-04-19T00:33:01;100.97;;;39.42;;
22152;SDS011;11242;50.536;12.688;2023-04-19T00:35:27;141.50;;;40.00;;
22152;SDS011;11242;50.536;12.688;2023-04-19T00:37:52;116.40;;;41.15;;
22152;SDS011;11242;50.536;12.688;2023-04-19T00:40:18;134.43;;;41.78;;
22152;SDS011;11242;50.536;12.688;2023-04-19T00:42:43;135.85;;;40.38;;
22152;SDS011;11242;50.536;12.688;2023-04-19T00:45:10;309.67;;;48.88;;
22152;SDS011;11242;50.536;12.688;2023-04-19T00:47:36;155.88;;;46.05;;
22152;SDS011;11242;50.536;12.688;2023-04-19T00:50:02;238.40;;;46.35;;
22152;SDS011;11242;50.536;12.688;2023-04-19T00:52:28;234.60;;;48.55;;
22152;SDS011;11242;50.536;12.688;2023-04-19T00:54:55;252.70;;;50.60;;
22152;SDS011;11242;50.536;12.688;2023-04-19T00:57:22;380.67;;;57.00;;
22152;SDS011;11242;50.536;12.688;2023-04-19T00:59:49;349.92;;;56.03;;
22152;SDS011;11242;50.536;12.688;2023-04-19T01:02:15;403.60;;;55.25;;
22152;SDS011;11242;50.536;12.688;2023-04-19T01:04:41;443.95;;;61.90;;
22152;SDS011;11242;50.536;12.688;2023-04-19T01:07:07;726.33;;;78.28;;
22152;SDS011;11242;50.536;12.688;2023-04-19T01:09:33;672.20;;;68.65;;
22152;SDS011;11242;50.536;12.688;2023-04-19T01:11:59;693.72;;;73.75;;
22152;SDS011;11242;50.536;12.688;2023-04-19T01:14:26;701.45;;;75.32;;
22152;SDS011;11242;50.536;12.688;2023-04-19T01:16:51;571.97;;;69.00;;
22152;SDS011;11242;50.536;12.688;2023-04-19T01:19:18;593.60;;;70.65;;
22152;SDS011;11242;50.536;12.688;2023-04-19T01:21:44;631.70;;;71.22;;
22152;SDS011;11242;50.536;12.688;2023-04-19T01:24:10;705.40;;;77.28;;
22152;SDS011;11242;50.536;12.688;2023-04-19T01:26:36;776.35;;;79.50;;
22152;SDS011;11242;50.536;12.688;2023-04-19T01:29:01;712.00;;;75.95;;
22152;SDS011;11242;50.536;12.688;2023-04-19T01:31:27;632.30;;;76.95;;
22152;SDS011;11242;50.536;12.688;2023-04-19T01:33:53;578.92;;;79.13;;
22152;SDS011;11242;50.536;12.688;2023-04-19T01:36:18;800.88;;;87.85;;
22152;SDS011;11242;50.536;12.688;2023-04-19T01:38:44;503.98;;;74.00;;
22152;SDS011;11242;50.536;12.688;2023-04-19T01:41:11;392.35;;;67.15;;
22152;SDS011;11242;50.536;12.688;2023-04-19T01:43:37;230.95;;;59.25;;
22152;SDS011;11242;50.536;12.688;2023-04-19T01:46:03;232.93;;;59.58;;
22152;SDS011;11242;50.536;12.688;2023-04-19T01:48:28;158.80;;;53.95;;
22152;SDS011;11242;50.536;12.688;2023-04-19T01:50:54;139.95;;;52.60;;
22152;SDS011;11242;50.536;12.688;2023-04-19T01:53:20;136.95;;;52.42;;
22152;SDS011;11242;50.536;12.688;2023-04-19T01:55:45;108.93;;;51.00;;
22152;SDS011;11242;50.536;12.688;2023-04-19T01:58:12;112.13;;;50.65;;
22152;SDS011;11242;50.536;12.688;2023-04-19T02:00:37;102.55;;;47.55;;
22152;SDS011;11242;50.536;12.688;2023-04-19T02:03:03;86.13;;;45.22;;
22152;SDS011;11242;50.536;12.688;2023-04-19T02:05:28;99.47;;;49.35;;
22152;SDS011;11242;50.536;12.688;2023-04-19T02:07:54;102.80;;;50.78;;
22152;SDS011;11242;50.536;12.688;2023-04-19T02:10:19;105.47;;;49.58;;
22152;SDS011;11242;50.536;12.688;2023-04-19T02:12:45;121.50;;;51.13;;
22152;SDS011;11242;50.536;12.688;2023-04-19T02:15:10;170.90;;;53.25;;
22152;SDS011;11242;50.536;12.688;2023-04-19T02:17:36;139.15;;;52.92;;
22152;SDS011;11242;50.536;12.688;2023-04-19T02:20:03;141.80;;;50.10;;
22152;SDS011;11242;50.536;12.688;2023-04-19T02:22:29;160.82;;;51.20;;
22152;SDS011;11242;50.536;12.688;2023-04-19T02:24:55;160.63;;;54.22;;
22152;SDS011;11242;50.536;12.688;2023-04-19T02:27:27;158.05;;;52.38;;
22152;SDS011;11242;50.536;12.688;2023-04-19T02:29:53;207.05;;;52.70;;
22152;SDS011;11242;50.536;12.688;2023-04-19T02:32:19;226.88;;;54.65;;
22152;SDS011;11242;50.536;12.688;2023-04-19T02:34:44;209.85;;;50.17;;
22152;SDS011;11242;50.536;12.688;2023-04-19T02:37:10;211.57;;;53.95;;
22152;SDS011;11242;50.536;12.688;2023-04-19T02:39:35;169.13;;;50.55;;
22152;SDS011;11242;50.536;12.688;2023-04-19T02:42:01;150.60;;;44.95;;
22152;SDS011;11242;50.536;12.688;2023-04-19T02:44:27;179.90;;;47.80;;
22152;SDS011;11242;50.536;12.688;2023-04-19T02:46:53;145.25;;;48.05;;
22152;SDS011;11242;50.536;12.688;2023-04-19T02:49:19;136.65;;;47.67;;
22152;SDS011;11242;50.536;12.688;2023-04-19T02:51:45;111.55;;;44.80;;
22152;SDS011;11242;50.536;12.688;2023-04-19T02:54:12;110.30;;;43.38;;
22152;SDS011;11242;50.536;12.688;2023-04-19T02:56:39;106.50;;;45.38;;
22152;SDS011;11242;50.536;12.688;2023-04-19T02:59:05;92.68;;;41.60;;
22152;SDS011;11242;50.536;12.688;2023-04-19T03:01:31;80.60;;;40.85;;
22152;SDS011;11242;50.536;12.688;2023-04-19T03:03:59;76.50;;;38.83;;
22152;SDS011;11242;50.536;12.688;2023-04-19T03:06:25;81.90;;;36.75;;
22152;SDS011;11242;50.536;12.688;2023-04-19T03:08:51;71.85;;;37.90;;
22152;SDS011;11242;50.536;12.688;2023-04-19T03:11:17;66.80;;;34.75;;
22152;SDS011;11242;50.536;12.688;2023-04-19T03:13:43;63.42;;;34.38;;
22152;SDS011;11242;50.536;12.688;2023-04-19T03:16:10;63.28;;;32.90;;
22152;SDS011;11242;50.536;12.688;2023-04-19T03:18:36;50.75;;;30.42;;
22152;SDS011;11242;50.536;12.688;2023-04-19T03:21:03;54.40;;;30.27;;
22152;SDS011;11242;50.536;12.688;2023-04-19T03:23:36;47.17;;;26.75;;
22152;SDS011;11242;50.536;12.688;2023-04-19T03:26:02;48.25;;;28.13;;
22152;SDS011;11242;50.536;12.688;2023-04-19T03:28:35;50.88;;;28.33;;
22152;SDS011;11242;50.536;12.688;2023-04-19T03:31:20;51.13;;;28.90;;
22152;SDS011;11242;50.536;12.688;2023-04-19T03:33:48;52.25;;;28.75;;
22152;SDS011;11242;50.536;12.688;2023-04-19T03:36:14;48.00;;;27.55;;
22152;SDS011;11242;50.536;12.688;2023-04-19T03:38:42;45.53;;;26.70;;
22152;SDS011;11242;50.536;12.688;2023-04-19T03:41:20;48.05;;;26.42;;
22152;SDS011;11242;50.536;12.688;2023-04-19T03:43:53;47.88;;;27.75;;
22152;SDS011;11242;50.536;12.688;2023-04-19T03:46:21;44.58;;;24.85;;
22152;SDS011;11242;50.536;12.688;2023-04-19T03:48:48;44.50;;;26.30;;
22152;SDS011;11242;50.536;12.688;2023-04-19T03:51:14;49.63;;;27.75;;
22152;SDS011;11242;50.536;12.688;2023-04-19T03:53:40;50.42;;;27.98;;
22152;SDS011;11242;50.536;12.688;2023-04-19T03:56:06;44.58;;;25.77;;
22152;SDS011;11242;50.536;12.688;2023-04-19T03:58:32;43.47;;;26.83;;
22152;SDS011;11242;50.536;12.688;2023-04-19T04:01:03;39.10;;;24.40;;
22152;SDS011;11242;50.536;12.688;2023-04-19T04:03:30;42.42;;;25.17;;
22152;SDS011;11242;50.536;12.688;2023-04-19T04:05:56;41.47;;;24.65;;
22152;SDS011;11242;50.536;12.688;2023-04-19T04:08:22;42.15;;;24.45;;
22152;SDS011;11242;50.536;12.688;2023-04-19T04:10:48;43.08;;;24.77;;
22152;SDS011;11242;50.536;12.688;2023-04-19T04:13:13;37.53;;;23.42;;
22152;SDS011;11242;50.536;12.688;2023-04-19T04:15:46;35.95;;;22.17;;
22152;SDS011;11242;50.536;12.688;2023-04-19T04:18:13;32.83;;;19.95;;
22152;SDS011;11242;50.536;12.688;2023-04-19T04:20:39;33.78;;;21.88;;
22152;SDS011;11242;50.536;12.688;2023-04-19T04:23:09;32.55;;;20.45;;
22152;SDS011;11242;50.536;12.688;2023-04-19T04:25:36;31.25;;;20.08;;
22152;SDS011;11242;50.536;12.688;2023-04-19T04:28:03;23.77;;;16.17;;
22152;SDS011;11242;50.536;12.688;2023-04-19T04:30:29;32.75;;;20.88;;
22152;SDS011;11242;50.536;12.688;2023-04-19T04:32:56;25.05;;;16.55;;
22152;SDS011;11242;50.536;12.688;2023-04-19T04:35:23;21.50;;;15.20;;
22152;SDS011;11242;50.536;12.688;2023-04-19T04:37:55;22.63;;;15.88;;
22152;SDS011;11242;50.536;12.688;2023-04-19T04:40:21;25.02;;;18.02;;
22152;SDS011;11242;50.536;12.688;2023-04-19T04:42:47;33.47;;;20.00;;
22152;SDS011;11242;50.536;12.688;2023-04-19T04:45:13;26.27;;;16.85;;
22152;SDS011;11242;50.536;12.688;2023-04-19T04:47:42;31.20;;;22.92;;
22152;SDS011;11242;50.536;12.688;2023-04-19T04:50:10;30.27;;;18.60;;
22152;SDS011;11242;50.536;12.688;2023-04-19T04:52:36;28.27;;;20.52;;
22152;SDS011;11242;50.536;12.688;2023-04-19T04:55:09;27.23;;;18.02;;
22152;SDS011;11242;50.536;12.688;2023-04-19T04:57:39;29.90;;;21.27;;
22152;SDS011;11242;50.536;12.688;2023-04-19T05:00:08;28.55;;;17.70;;
22152;SDS011;11242;50.536;12.688;2023-04-19T05:02:42;58.83;;;24.27;;
22152;SDS011;11242;50.536;12.688;2023-04-19T05:05:09;125.43;;;29.77;;
22152;SDS011;11242;50.536;12.688;2023-04-19T05:07:37;163.60;;;30.35;;
22152;SDS011;11242;50.536;12.688;2023-04-19T05:10:03;183.55;;;32.55;;
22152;SDS011;11242;50.536;12.688;2023-04-19T05:12:38;198.23;;;33.30;;
22152;SDS011;11242;50.536;12.688;2023-04-19T05:15:05;269.45;;;39.20;;
22152;SDS011;11242;50.536;12.688;2023-04-19T05:17:31;286.90;;;48.72;;
22152;SDS011;11242;50.536;12.688;2023-04-19T05:19:57;191.80;;;48.38;;
22152;SDS011;11242;50.536;12.688;2023-04-19T05:22:23;328.02;;;45.05;;
22152;SDS011;11242;50.536;12.688;2023-04-19T05:24:49;306.25;;;37.55;;
22152;SDS011;11242;50.536;12.688;2023-04-19T05:27:15;345.45;;;50.47;;
22152;SDS011;11242;50.536;12.688;2023-04-19T05:29:41;520.03;;;52.85;;
22152;SDS011;11242;50.536;12.688;2023-04-19T05:32:06;368.70;;;56.35;;
22152;SDS011;11242;50.536;12.688;2023-04-19T05:34:39;435.48;;;50.40;;
22152;SDS011;11242;50.536;12.688;2023-04-19T05:37:04;543.80;;;58.05;;
22152;SDS011;11242;50.536;12.688;2023-04-19T05:39:30;531.10;;;63.97;;
22152;SDS011;11242;50.536;12.688;2023-04-19T05:41:57;547.40;;;61.38;;
22152;SDS011;11242;50.536;12.688;2023-04-19T05:44:22;552.63;;;56.67;;
22152;SDS011;11242;50.536;12.688;2023-04-19T05:46:48;588.47;;;58.97;;
22152;SDS011;11242;50.536;12.688;2023-04-19T05:49:21;503.35;;;59.33;;
22152;SDS011;11242;50.536;12.688;2023-04-19T05:52:05;387.35;;;50.83;;
22152;SDS011;11242;50.536;12.688;2023-04-19T05:54:42;413.92;;;50.65;;
22152;SDS011;11242;50.536;12.688;2023-04-19T05:57:09;380.73;;;55.03;;
22152;SDS011;11242;50.536;12.688;2023-04-19T05:59:34;286.23;;;46.05;;
22152;SDS011;11242;50.536;12.688;2023-04-19T06:02:00;339.05;;;49.10;;
22152;SDS011;11242;50.536;12.688;2023-04-19T06:04:26;304.92;;;43.78;;
22152;SDS011;11242;50.536;12.688;2023-04-19T06:06:52;176.95;;;46.83;;
22152;SDS011;11242;50.536;12.688;2023-04-19T06:09:18;136.65;;;39.38;;
22152;SDS011;11242;50.536;12.688;2023-04-19T06:11:43;90.85;;;33.00;;
22152;SDS011;11242;50.536;12.688;2023-04-19T06:14:10;113.07;;;36.08;;
22152;SDS011;11242;50.536;12.688;2023-04-19T06:16:38;54.63;;;26.13;;
22152;SDS011;11242;50.536;12.688;2023-04-19T06:19:04;47.15;;;25.52;;
22152;SDS011;11242;50.536;12.688;2023-04-19T06:21:30;48.65;;;25.75;;
22152;SDS011;11242;50.536;12.688;2023-04-19T06:23:56;47.45;;;25.15;;
22152;SDS011;11242;50.536;12.688;2023-04-19T06:26:22;45.63;;;23.58;;
22152;SDS011;11242;50.536;12.688;2023-04-19T06:28:48;45.30;;;24.23;;
22152;SDS011;11242;50.536;12.688;2023-04-19T06:31:13;54.05;;;27.58;;
22152;SDS011;11242;50.536;12.688;2023-04-19T06:33:39;60.35;;;29.17;;
22152;SDS011;11242;50.536;12.688;2023-04-19T06:36:04;60.72;;;31.60;;
22152;SDS011;11242;50.536;12.688;2023-04-19T06:38:30;57.70;;;31.58;;
22152;SDS011;11242;50.536;12.688;2023-04-19T06:40:56;44.70;;;24.15;;
22152;SDS011;11242;50.536;12.688;2023-04-19T06:43:21;31.80;;;18.58;;
22152;SDS011;11242;50.536;12.688;2023-04-19T06:45:47;28.88;;;19.55;;
22152;SDS011;11242;50.536;12.688;2023-04-19T06:48:13;33.45;;;21.77;;
22152;SDS011;11242;50.536;12.688;2023-04-19T06:50:38;36.80;;;24.17;;
22152;SDS011;11242;50.536;12.688;2023-04-19T06:53:04;38.67;;;26.77;;
22152;SDS011;11242;50.536;12.688;2023-04-19T06:55:29;38.58;;;24.35;;
22152;SDS011;11242;50.536;12.688;2023-04-19T06:57:55;43.95;;;26.25;;
22152;SDS011;11242;50.536;12.688;2023-04-19T07:00:21;41.13;;;25.27;;
22152;SDS011;11242;50.536;12.688;2023-04-19T07:02:48;50.22;;;29.73;;
22152;SDS011;11242;50.536;12.688;2023-04-19T07:05:14;50.90;;;31.80;;
22152;SDS011;11242;50.536;12.688;2023-04-19T07:07:40;65.03;;;36.08;;
22152;SDS011;11242;50.536;12.688;2023-04-19T07:10:06;90.22;;;55.83;;
22152;SDS011;11242;50.536;12.688;2023-04-19T07:12:33;58.03;;;34.30;;
22152;SDS011;11242;50.536;12.688;2023-04-19T07:14:58;47.17;;;29.65;;
22152;SDS011;11242;50.536;12.688;2023-04-19T07:17:24;71.10;;;46.38;;
22152;SDS011;11242;50.536;12.688;2023-04-19T07:19:50;47.40;;;30.15;;
22152;SDS011;11242;50.536;12.688;2023-04-19T07:22:15;43.65;;;27.98;;
22152;SDS011;11242;50.536;12.688;2023-04-19T07:24:41;37.97;;;25.90;;
22152;SDS011;11242;50.536;12.688;2023-04-19T07:27:08;35.67;;;23.40;;
22152;SDS011;11242;50.536;12.688;2023-04-19T07:29:34;37.30;;;23.58;;
22152;SDS011;11242;50.536;12.688;2023-04-19T07:32:00;34.75;;;23.85;;
22152;SDS011;11242;50.536;12.688;2023-04-19T07:34:26;34.88;;;23.63;;
22152;SDS011;11242;50.536;12.688;2023-04-19T07:36:52;49.63;;;34.50;;
22152;SDS011;11242;50.536;12.688;2023-04-19T07:39:17;33.97;;;22.80;;
22152;SDS011;11242;50.536;12.688;2023-04-19T07:41:43;30.95;;;20.77;;
22152;SDS011;11242;50.536;12.688;2023-04-19T07:44:09;30.60;;;22.02;;
22152;SDS011;11242;50.536;12.688;2023-04-19T07:46:35;29.92;;;20.70;;
22152;SDS011;11242;50.536;12.688;2023-04-19T07:49:01;28.10;;;19.05;;
22152;SDS011;11242;50.536;12.688;2023-04-19T07:51:27;28.42;;;18.52;;
22152;SDS011;11242;50.536;12.688;2023-04-19T07:53:52;23.67;;;17.20;;
22152;SDS011;11242;50.536;12.688;2023-04-19T07:56:18;22.80;;;16.80;;
22152;SDS011;11242;50.536;12.688;2023-04-19T07:58:44;30.17;;;20.08;;
22152;SDS011;11242;50.536;12.688;2023-04-19T08:01:10;24.58;;;17.50;;
22152;SDS011;11242;50.536;12.688;2023-04-19T08:03:35;19.98;;;15.27;;
22152;SDS011;11242;50.536;12.688;2023-04-19T08:06:04;22.95;;;15.82;;
22152;SDS011;11242;50.536;12.688;2023-04-19T08:08:32;16.65;;;10.73;;
22152;SDS011;11242;50.536;12.688;2023-04-19T08:10:57;14.98;;;10.63;;
22152;SDS011;11242;50.536;12.688;2023-04-19T08:13:23;12.50;;;10.43;;
22152;SDS011;11242;50.536;12.688;2023-04-19T08:15:48;14.60;;;11.77;;
22152;SDS011;11242;50.536;12.688;2023-04-19T08:18:14;13.25;;;10.65;;
22152;SDS011;11242;50.536;12.688;2023-04-19T08:20:40;15.82;;;11.30;;
22152;SDS011;11242;50.536;12.688;2023-04-19T08:23:10;11.70;;;8.63;;
22152;SDS011;11242;50.536;12.688;2023-04-19T08:25:36;11.90;;;10.70;;
22152;SDS011;11242;50.536;12.688;2023-04-19T08:28:02;11.35;;;9.52;;
22152;SDS011;11242;50.536;12.688;2023-04-19T08:30:28;15.30;;;9.05;;
22152;SDS011;11242;50.536;12.688;2023-04-19T08:32:53;11.55;;;8.50;;
22152;SDS011;11242;50.536;12.688;2023-04-19T08:35:20;11.75;;;8.07;;
22152;SDS011;11242;50.536;12.688;2023-04-19T08:37:45;11.63;;;8.98;;
22152;SDS011;11242;50.536;12.688;2023-04-19T08:40:12;13.95;;;8.00;;
22152;SDS011;11242;50.536;12.688;2023-04-19T08:42:38;11.07;;;8.02;;
22152;SDS011;11242;50.536;12.688;2023-04-19T08:45:04;10.38;;;6.95;;
22152;SDS011;11242;50.536;12.688;2023-04-19T08:47:32;9.52;;;6.57;;
22152;SDS011;11242;50.536;12.688;2023-04-19T08:50:03;7.70;;;6.13;;
22152;SDS011;11242;50.536;12.688;2023-04-19T08:52:31;10.00;;;6.78;;
22152;SDS011;11242;50.536;12.688;2023-04-19T08:55:00;11.20;;;7.90;;
22152;SDS011;11242;50.536;12.688;2023-04-19T08:57:29;13.43;;;7.97;;
22152;SDS011;11242;50.536;12.688;2023-04-19T08:59:56;11.68;;;8.43;;
22152;SDS011;11242;50.536;12.688;2023-04-19T09:02:22;12.30;;;9.77;;
22152;SDS011;11242;50.536;12.688;2023-04-19T09:04:47;8.60;;;6.45;;
22152;SDS011;11242;50.536;12.688;2023-04-19T09:07:23;9.40;;;7.47;;
22152;SDS011;11242;50.536;12.688;2023-04-19T09:10:12;7.57;;;6.07;;
22152;SDS011;11242;50.536;12.688;2023-04-19T09:12:39;9.20;;;6.95;;
22152;SDS011;11242;50.536;12.688;2023-04-19T09:15:05;13.05;;;9.13;;
22152;SDS011;11242;50.536;12.688;2023-04-19T09:17:33;7.75;;;5.93;;
22152;SDS011;11242;50.536;12.688;2023-04-19T09:19:59;7.30;;;4.20;;
22152;SDS011;11242;50.536;12.688;2023-04-19T09:22:25;5.50;;;4.13;;
22152;SDS011;11242;50.536;12.688;2023-04-19T09:24:51;6.75;;;5.00;;
22152;SDS011;11242;50.536;12.688;2023-04-19T09:27:27;7.35;;;5.10;;
22152;SDS011;11242;50.536;12.688;2023-04-19T09:29:57;7.88;;;5.10;;
22152;SDS011;11242;50.536;12.688;2023-04-19T09:32:25;8.98;;;5.25;;
22152;SDS011;11242;50.536;12.688;2023-04-19T09:37:17;8.52;;;5.90;;
22152;SDS011;11242;50.536;12.688;2023-04-19T09:39:43;9.55;;;6.03;;
22152;SDS011;11242;50.536;12.688;2023-04-19T09:42:08;8.05;;;5.00;;
22152;SDS011;11242;50.536;12.688;2023-04-19T09:44:34;5.68;;;4.90;;
22152;SDS011;11242;50.536;12.688;2023-04-19T09:47:00;12.15;;;5.95;;
22152;SDS011;11242;50.536;12.688;2023-04-19T09:49:26;6.57;;;4.30;;
22152;SDS011;11242;50.536;12.688;2023-04-19T09:51:52;5.97;;;4.70;;
22152;SDS011;11242;50.536;12.688;2023-04-19T09:54:19;6.95;;;5.00;;
22152;SDS011;11242;50.536;12.688;2023-04-19T09:56:49;5.93;;;4.90;;
22152;SDS011;11242;50.536;12.688;2023-04-19T09:59:16;10.75;;;6.22;;
22152;SDS011;11242;50.536;12.688;2023-04-19T10:01:43;9.77;;;5.35;;
22152;SDS011;11242;50.536;12.688;2023-04-19T10:04:10;10.68;;;5.20;;
22152;SDS011;11242;50.536;12.688;2023-04-19T10:06:37;7.13;;;5.18;;
22152;SDS011;11242;50.536;12.688;2023-04-19T10:09:04;8.05;;;6.10;;
22152;SDS011;11242;50.536;12.688;2023-04-19T10:11:34;6.03;;;5.43;;
22152;SDS011;11242;50.536;12.688;2023-04-19T10:14:08;7.93;;;5.57;;
22152;SDS011;11242;50.536;12.688;2023-04-19T10:16:35;9.20;;;5.78;;
22152;SDS011;11242;50.536;12.688;2023-04-19T10:19:03;9.00;;;5.90;;
22152;SDS011;11242;50.536;12.688;2023-04-19T10:21:31;11.20;;;7.65;;
22152;SDS011;11242;50.536;12.688;2023-04-19T10:23:58;8.43;;;6.95;;
22152;SDS011;11242;50.536;12.688;2023-04-19T10:26:24;9.73;;;6.78;;
22152;SDS011;11242;50.536;12.688;2023-04-19T10:28:50;12.02;;;6.28;;
22152;SDS011;11242;50.536;12.688;2023-04-19T10:31:18;11.43;;;7.25;;
22152;SDS011;11242;50.536;12.688;2023-04-19T10:33:47;10.88;;;6.18;;
22152;SDS011;11242;50.536;12.688;2023-04-19T10:36:15;9.68;;;6.63;;
22152;SDS011;11242;50.536;12.688;2023-04-19T10:38:43;9.05;;;5.45;;
22152;SDS011;11242;50.536;12.688;2023-04-19T10:41:15;8.95;;;7.00;;
22152;SDS011;11242;50.536;12.688;2023-04-19T10:44:28;16.52;;;6.85;;
22152;SDS011;11242;50.536;12.688;2023-04-19T10:46:36;10.18;;;6.85;;
22152;SDS011;11242;50.536;12.688;2023-04-19T10:49:04;8.65;;;6.10;;
22152;SDS011;11242;50.536;12.688;2023-04-19T10:51:34;9.95;;;7.05;;
22152;SDS011;11242;50.536;12.688;2023-04-19T11:01:35;9.23;;;6.00;;
22152;SDS011;11242;50.536;12.688;2023-04-19T11:04:16;12.07;;;8.40;;
22152;SDS011;11242;50.536;12.688;2023-04-19T11:09:32;7.85;;;6.03;;
22152;SDS011;11242;50.536;12.688;2023-04-19T11:12:06;10.55;;;6.00;;
22152;SDS011;11242;50.536;12.688;2023-04-19T11:14:56;8.05;;;5.28;;
22152;SDS011;11242;50.536;12.688;2023-04-19T11:17:25;6.22;;;4.97;;
22152;SDS011;11242;50.536;12.688;2023-04-19T11:19:54;12.18;;;5.97;;
22152;SDS011;11242;50.536;12.688;2023-04-19T11:27:46;7.18;;;5.70;;
22152;SDS011;11242;50.536;12.688;2023-04-19T11:30:16;9.40;;;6.95;;
22152;SDS011;11242;50.536;12.688;2023-04-19T11:32:51;7.95;;;5.65;;
22152;SDS011;11242;50.536;12.688;2023-04-19T11:35:21;7.25;;;5.72;;
22152;SDS011;11242;50.536;12.688;2023-04-19T11:37:48;5.90;;;5.25;;
22152;SDS011;11242;50.536;12.688;2023-04-19T11:40:15;9.13;;;6.95;;
22152;SDS011;11242;50.536;12.688;2023-04-19T11:42:41;10.40;;;6.35;;
22152;SDS011;11242;50.536;12.688;2023-04-19T11:45:08;9.57;;;6.05;;
22152;SDS011;11242;50.536;12.688;2023-04-19T11:47:34;11.65;;;6.88;;
22152;SDS011;11242;50.536;12.688;2023-04-19T11:52:54;11.60;;;6.72;;
22152;SDS011;11242;50.536;12.688;2023-04-19T11:55:20;10.75;;;6.55;;
22152;SDS011;11242;50.536;12.688;2023-04-19T11:57:46;7.00;;;5.57;;
22152;SDS011;11242;50.536;12.688;2023-04-19T12:00:12;9.10;;;6.43;;
22152;SDS011;11242;50.536;12.688;2023-04-19T12:02:39;15.63;;;10.27;;
22152;SDS011;11242;50.536;12.688;2023-04-19T12:05:13;11.60;;;6.35;;
22152;SDS011;11242;50.536;12.688;2023-04-19T12:10:29;8.95;;;6.03;;
22152;SDS011;11242;50.536;12.688;2023-04-19T12:12:55;9.95;;;6.45;;
22152;SDS011;11242;50.536;12.688;2023-04-19T12:15:21;11.15;;;6.40;;
22152;SDS011;11242;50.536;12.688;2023-04-19T12:17:59;8.13;;;6.15;;
22152;SDS011;11242;50.536;12.688;2023-04-19T12:20:27;9.43;;;6.57;;
22152;SDS011;11242;50.536;12.688;2023-04-19T12:22:57;10.35;;;8.02;;
22152;SDS011;11242;50.536;12.688;2023-04-19T12:25:26;14.60;;;10.02;;
22152;SDS011;11242;50.536;12.688;2023-04-19T12:27:53;11.75;;;8.13;;
22152;SDS011;11242;50.536;12.688;2023-04-19T12:30:19;9.18;;;7.20;;
22152;SDS011;11242;50.536;12.688;2023-04-19T12:32:44;11.52;;;10.23;;
22152;SDS011;11242;50.536;12.688;2023-04-19T12:35:10;13.25;;;8.65;;
22152;SDS011;11242;50.536;12.688;2023-04-19T12:37:35;21.88;;;10.40;;
22152;SDS011;11242;50.536;12.688;2023-04-19T12:40:01;47.53;;;18.23;;
22152;SDS011;11242;50.536;12.688;2023-04-19T12:42:27;58.38;;;22.23;;
22152;SDS011;11242;50.536;12.688;2023-04-19T12:44:53;17.00;;;9.63;;
22152;SDS011;11242;50.536;12.688;2023-04-19T12:47:19;35.28;;;15.70;;
22152;SDS011;11242;50.536;12.688;2023-04-19T12:49:44;13.13;;;9.27;;
22152;SDS011;11242;50.536;12.688;2023-04-19T12:52:10;15.27;;;10.45;;
22152;SDS011;11242;50.536;12.688;2023-04-19T12:54:35;12.88;;;9.98;;
22152;SDS011;11242;50.536;12.688;2023-04-19T12:57:01;15.27;;;10.30;;
22152;SDS011;11242;50.536;12.688;2023-04-19T12:59:26;30.85;;;13.27;;
22152;SDS011;11242;50.536;12.688;2023-04-19T13:01:52;25.48;;;10.50;;
22152;SDS011;11242;50.536;12.688;2023-04-19T13:04:17;56.67;;;16.08;;
22152;SDS011;11242;50.536;12.688;2023-04-19T13:06:43;12.40;;;8.18;;
22152;SDS011;11242;50.536;12.688;2023-04-19T13:09:09;119.65;;;26.17;;
22152;SDS011;11242;50.536;12.688;2023-04-19T13:11:34;24.73;;;12.85;;
22152;SDS011;11242;50.536;12.688;2023-04-19T13:14:00;21.17;;;11.00;;
22152;SDS011;11242;50.536;12.688;2023-04-19T13:16:26;38.53;;;14.73;;
22152;SDS011;11242;50.536;12.688;2023-04-19T13:18:51;51.40;;;17.42;;
22152;SDS011;11242;50.536;12.688;2023-04-19T13:21:18;38.25;;;16.85;;
22152;SDS011;11242;50.536;12.688;2023-04-19T13:23:44;16.95;;;9.23;;
22152;SDS011;11242;50.536;12.688;2023-04-19T13:26:09;16.50;;;9.45;;
22152;SDS011;11242;50.536;12.688;2023-04-19T13:28:35;17.50;;;10.23;;
22152;SDS011;11242;50.536;12.688;2023-04-19T13:31:02;18.33;;;8.85;;
22152;SDS011;11242;50.536;12.688;2023-04-19T13:33:28;19.95;;;8.75;;
22152;SDS011;11242;50.536;12.688;2023-04-19T13:35:54;9.20;;;6.05;;
22152;SDS011;11242;50.536;12.688;2023-04-19T13:38:19;12.25;;;7.05;;
22152;SDS011;11242;50.536;12.688;2023-04-19T13:40:45;11.30;;;6.15;;
22152;SDS011;11242;50.536;12.688;2023-04-19T13:43:11;20.90;;;7.72;;
22152;SDS011;11242;50.536;12.688;2023-04-19T13:45:36;15.48;;;8.52;;
22152;SDS011;11242;50.536;12.688;2023-04-19T13:48:02;66.10;;;18.55;;
22152;SDS011;11242;50.536;12.688;2023-04-19T13:50:27;32.90;;;14.70;;
22152;SDS011;11242;50.536;12.688;2023-04-19T13:52:53;69.82;;;26.30;;
22152;SDS011;11242;50.536;12.688;2023-04-19T13:55:19;82.18;;;26.98;;
22152;SDS011;11242;50.536;12.688;2023-04-19T13:57:45;41.28;;;21.20;;
22152;SDS011;11242;50.536;12.688;2023-04-19T14:00:10;130.27;;;33.95;;
22152;SDS011;11242;50.536;12.688;2023-04-19T14:02:36;65.65;;;20.00;;
22152;SDS011;11242;50.536;12.688;2023-04-19T14:05:02;110.28;;;23.75;;
22152;SDS011;11242;50.536;12.688;2023-04-19T14:07:28;13.23;;;8.73;;
22152;SDS011;11242;50.536;12.688;2023-04-19T14:09:54;10.02;;;7.50;;
22152;SDS011;11242;50.536;12.688;2023-04-19T14:12:19;16.52;;;9.80;;
22152;SDS011;11242;50.536;12.688;2023-04-19T14:14:45;11.35;;;7.75;;
22152;SDS011;11242;50.536;12.688;2023-04-19T14:17:11;17.23;;;13.30;;
22152;SDS011;11242;50.536;12.688;2023-04-19T14:19:36;22.10;;;9.63;;
22152;SDS011;11242;50.536;12.688;2023-04-19T14:22:02;7.00;;;5.97;;
22152;SDS011;11242;50.536;12.688;2023-04-19T14:24:27;55.92;;;22.38;;
22152;SDS011;11242;50.536;12.688;2023-04-19T14:26:53;11.98;;;6.90;;
22152;SDS011;11242;50.536;12.688;2023-04-19T14:29:18;15.00;;;6.97;;
22152;SDS011;11242;50.536;12.688;2023-04-19T14:31:44;13.30;;;6.95;;
22152;SDS011;11242;50.536;12.688;2023-04-19T14:34:09;10.90;;;8.43;;